Time;durP1;ratioP1;P1;durP2;ratioP2;P2;SDS_P1;SDS_P2;PMS_P1;PMS_P2;Temp;Humidity;BMP_temperature;BMP_pressure;BME280_temperature;BME280_humidity;BME280_pressure;Samples;Min_cycle;Max_cycle;Signal;HPM_P1;HPM_P2
2023/03/24 00:00:23;;;;;;;5.93;3.13;;;;;;;10.78;100.00;100172.31;5052720;28;20873;-70
2023/03/24 00:02:50;;;;;;;6.57;3.43;;;;;;;10.81;100.00;100176.59;5046681;28;20290;-70
2023/03/24 00:05:18;;;;;;;6.83;3.10;;;;;;;10.85;100.00;100183.47;5044546;28;20181;-69
2023/03/24 00:07:44;;;;;;;5.53;3.40;;;;;;;10.85;100.00;100186.03;5030098;28;20186;-72
2023/03/24 00:10:13;;;;;;;3.80;2.97;;;;;;;10.86;100.00;100173.25;5044117;28;20255;-72
2023/03/24 00:12:41;;;;;;;8.30;3.20;;;;;;;10.83;100.00;100175.78;5028908;28;20213;-70
2023/03/24 00:15:11;;;;;;;6.40;3.43;;;;;;;10.82;100.00;100173.19;5048333;28;20202;-71
2023/03/24 00:17:38;;;;;;;4.10;3.27;;;;;;;10.83;100.00;100169.81;5046816;28;20243;-71
2023/03/24 00:20:13;;;;;;;3.43;2.80;;;;;;;10.88;100.00;100163.00;5047778;28;20197;-70
2023/03/24 00:22:47;;;;;;;5.80;3.13;;;;;;;10.85;100.00;100156.16;5048275;28;20732;-70
2023/03/24 00:25:13;;;;;;;6.13;3.07;;;;;;;10.83;100.00;100150.16;5024045;28;20197;-71
2023/03/24 00:27:38;;;;;;;4.53;3.00;;;;;;;10.83;100.00;100152.72;5045852;28;20188;-70
2023/03/24 00:30:10;;;;;;;13.23;3.87;;;;;;;10.85;100.00;100148.47;5032825;28;20369;-70
2023/03/24 00:32:37;;;;;;;8.73;3.17;;;;;;;10.83;100.00;100145.03;5048448;28;20213;-71
2023/03/24 00:35:08;;;;;;;3.87;3.00;;;;;;;10.82;100.00;100139.91;5046780;28;20189;-71
2023/03/24 00:37:36;;;;;;;6.53;3.07;;;;;;;10.82;100.00;100142.47;5013903;28;20277;-71
2023/03/24 00:40:09;;;;;;;4.13;2.93;;;;;;;10.81;100.00;100138.19;5020353;28;20197;-71
2023/03/24 00:42:35;;;;;;;4.97;3.20;;;;;;;10.80;100.00;100132.22;5040243;28;20848;-69
2023/03/24 00:45:04;;;;;;;5.00;3.27;;;;;;;10.79;100.00;100129.66;5024820;28;20193;-72
2023/03/24 00:47:35;;;;;;;7.33;3.37;;;;;;;10.77;100.00;100123.66;5023813;28;20186;-71
2023/03/24 00:50:10;;;;;;;6.00;3.37;;;;;;;10.77;100.00;100113.41;5027255;28;20194;-70
2023/03/24 00:52:35;;;;;;;5.03;3.00;;;;;;;10.77;100.00;100121.09;5025331;28;20214;-72
2023/03/24 00:55:03;;;;;;;8.23;3.57;;;;;;;10.76;100.00;100117.69;5049534;28;20284;-71
2023/03/24 00:57:33;;;;;;;6.27;3.73;;;;;;;10.75;100.00;100104.88;5021565;28;20218;-71
2023/03/24 01:00:13;;;;;;;3.07;2.67;;;;;;;10.73;100.00;100093.78;5031013;28;20217;-72
2023/03/24 01:02:39;;;;;;;5.83;3.67;;;;;;;10.69;100.00;100098.00;5028818;28;20225;-72
2023/03/24 01:05:05;;;;;;;5.27;3.37;;;;;;;10.69;100.00;100102.28;5036392;28;20662;-72
2023/03/24 01:07:32;;;;;;;6.57;3.57;;;;;;;10.66;100.00;100094.56;5029177;28;20246;-71
2023/03/24 01:09:58;;;;;;;5.40;3.20;;;;;;;10.65;100.00;100085.19;5028783;28;20185;-71
2023/03/24 01:12:35;;;;;;;5.40;3.40;;;;;;;10.65;100.00;100080.06;5028791;28;20271;-72
2023/03/24 01:15:06;;;;;;;5.73;3.13;;;;;;;10.62;100.00;100080.03;5042218;28;20272;-73
2023/03/24 01:17:33;;;;;;;9.07;3.57;;;;;;;10.63;100.00;100079.19;5029760;28;20399;-72
2023/03/24 01:19:59;;;;;;;6.53;3.63;;;;;;;10.61;100.00;100071.50;5046151;28;20190;-71
2023/03/24 01:22:29;;;;;;;5.83;3.37;;;;;;;10.59;100.00;100064.63;5046698;28;20212;-71
2023/03/24 01:24:55;;;;;;;9.10;3.63;;;;;;;10.57;100.00;100064.66;5035762;28;20189;-71
2023/03/24 01:27:21;;;;;;;8.73;3.53;;;;;;;10.58;100.00;100060.38;5027922;28;20229;-71
2023/03/24 01:29:47;;;;;;;8.47;3.70;;;;;;;10.57;100.00;100048.44;5048255;28;20288;-72
2023/03/24 01:32:12;;;;;;;5.50;3.50;;;;;;;10.57;100.00;100049.28;5043997;28;20759;-73
2023/03/24 01:34:38;;;;;;;8.17;3.30;;;;;;;10.57;100.00;100044.16;5043386;28;20190;-71
2023/03/24 01:37:04;;;;;;;6.33;3.73;;;;;;;10.55;100.00;100040.72;5029033;28;20194;-71
2023/03/24 01:39:29;;;;;;;7.77;3.50;;;;;;;10.56;100.00;100033.91;5032511;28;20223;-71
2023/03/24 01:41:55;;;;;;;6.50;3.63;;;;;;;10.56;100.00;100016.00;5049638;28;20725;-70
2023/03/24 01:44:26;;;;;;;6.57;3.77;;;;;;;10.52;100.00;100022.81;5048434;28;20196;-71
2023/03/24 01:46:52;;;;;;;6.03;3.13;;;;;;;10.52;100.00;100012.56;5034273;28;20734;-70
2023/03/24 01:49:18;;;;;;;4.77;3.63;;;;;;;10.51;100.00;100013.41;5035306;28;20601;-72
2023/03/24 01:51:47;;;;;;;5.53;3.30;;;;;;;10.51;100.00;100007.44;5032716;28;20651;-70
2023/03/24 01:54:19;;;;;;;7.97;3.80;;;;;;;10.52;100.00;100004.03;5030415;28;20213;-72
2023/03/24 01:57:01;;;;;;;5.13;3.90;;;;;;;10.49;100.00;99993.75;5036495;28;20189;-70
2023/03/24 01:59:30;;;;;;;7.80;3.57;;;;;;;10.50;100.00;99992.94;5038915;28;20194;-71
2023/03/24 02:02:12;;;;;;;4.30;3.07;;;;;;;10.49;100.00;99973.28;5031664;28;20392;-72
2023/03/24 02:04:52;;;;;;;10.27;3.57;;;;;;;10.49;100.00;99980.97;5024448;28;20181;-71
2023/03/24 02:07:32;;;;;;;5.10;3.50;;;;;;;10.51;100.00;99974.16;5044823;28;20190;-71
2023/03/24 02:10:02;;;;;;;6.17;3.80;;;;;;;10.50;100.00;99957.09;5035593;28;20647;-70
2023/03/24 02:12:31;;;;;;;6.20;3.40;;;;;;;10.50;100.00;99954.53;5045892;28;20213;-72
2023/03/24 02:14:56;;;;;;;6.37;3.77;;;;;;;10.51;100.00;99948.56;5027019;28;20197;-70
2023/03/24 02:17:39;;;;;;;6.87;3.70;;;;;;;10.49;100.00;99946.00;5021524;28;20190;-73
2023/03/24 02:20:09;;;;;;;6.87;3.13;;;;;;;10.48;100.00;99939.19;5041699;28;20242;-71
2023/03/24 02:22:35;;;;;;;7.37;3.80;;;;;;;10.49;100.00;99933.19;5031199;28;20224;-70
2023/03/24 02:25:20;;;;;;;6.23;3.77;;;;;;;10.47;100.00;99926.38;5045565;28;20181;-71
2023/03/24 02:28:20;;;;;;;8.33;3.67;;;;;;;10.47;100.00;99919.53;5010673;28;20652;-70
2023/03/24 02:31:10;;;;;;;7.80;3.90;;;;;;;10.47;100.00;99921.25;5033504;28;20224;-71
2023/03/24 02:34:01;;;;;;;5.17;3.60;;;;;;;10.48;100.00;99916.16;5031152;28;20302;-71
2023/03/24 02:36:51;;;;;;;7.43;4.10;;;;;;;10.46;100.00;99907.59;5045430;28;20194;-70
2023/03/24 02:39:28;;;;;;;5.87;3.30;;;;;;;10.46;100.00;99899.91;5026592;28;20209;-72
2023/03/24 02:42:16;;;;;;;7.27;3.73;;;;;;;10.47;100.00;99901.59;5026552;28;20217;-70
2023/03/24 02:45:10;;;;;;;5.83;4.20;;;;;;;10.47;100.00;99887.97;5035181;28;20565;-70
2023/03/24 02:47:47;;;;;;;4.57;3.57;;;;;;;10.45;100.00;99889.66;5031677;28;20221;-70
2023/03/24 02:50:31;;;;;;;7.77;3.80;;;;;;;10.45;100.00;99880.28;5028668;28;20185;-70
2023/03/24 02:53:28;;;;;;;5.83;3.77;;;;;;;10.48;100.00;99882.88;5031507;28;20201;-71
2023/03/24 02:56:41;;;;;;;7.03;4.03;;;;;;;10.49;100.00;99884.56;5036162;28;20412;-71
2023/03/24 02:59:36;;;;;;;5.70;3.90;;;;;;;10.51;100.00;99869.22;5030285;28;20191;-71
2023/03/24 03:02:13;;;;;;;7.97;3.60;;;;;;;10.54;100.00;99856.41;5025851;28;20740;-71
2023/03/24 03:04:51;;;;;;;9.30;4.27;;;;;;;10.52;100.00;99859.00;5034129;28;20284;-70
2023/03/24 03:07:21;;;;;;;5.97;3.73;;;;;;;10.53;100.00;99850.47;5035637;28;20189;-70
2023/03/24 03:09:58;;;;;;;5.83;3.73;;;;;;;10.54;100.00;99844.50;5032089;28;20198;-70
2023/03/24 03:12:28;;;;;;;7.10;4.20;;;;;;;10.58;100.00;99846.22;5024912;28;20583;-70
2023/03/24 03:15:00;;;;;;;5.40;3.90;;;;;;;10.61;100.00;99836.00;5030553;28;20615;-70
2023/03/24 03:17:32;;;;;;;9.97;4.20;;;;;;;10.66;100.00;99829.19;5042954;28;20300;-71
2023/03/24 03:20:04;;;;;;;6.23;3.93;;;;;;;10.65;100.00;99822.31;5025978;28;20244;-72
2023/03/24 03:22:38;;;;;;;7.80;4.00;;;;;;;10.65;100.00;99811.25;5042611;28;20305;-73
2023/03/24 03:25:05;;;;;;;7.77;4.20;;;;;;;10.69;100.00;99813.81;5049802;28;20572;-71
2023/03/24 03:27:38;;;;;;;5.83;4.03;;;;;;;10.69;100.00;99808.69;5047996;28;20685;-72
2023/03/24 03:30:12;;;;;;;7.83;4.40;;;;;;;10.73;100.00;99810.41;5028784;28;20272;-71
2023/03/24 03:32:44;;;;;;;6.43;4.00;;;;;;;10.76;100.00;99789.94;5024541;28;20210;-73
2023/03/24 03:35:28;;;;;;;5.40;3.97;;;;;;;10.80;100.00;99783.09;5047075;28;20602;-71
2023/03/24 03:37:56;;;;;;;7.53;3.77;;;;;;;10.80;100.00;99783.09;5044922;28;20663;-70
2023/03/24 03:40:54;;;;;;;5.97;4.07;;;;;;;10.80;100.00;99777.97;5030539;28;20232;-72
2023/03/24 03:43:23;;;;;;;6.97;3.93;;;;;;;10.80;100.00;99768.59;5018060;28;20221;-72
2023/03/24 03:45:48;;;;;;;6.37;4.47;;;;;;;10.82;100.00;99769.44;5024513;28;20614;-72
2023/03/24 03:48:16;;;;;;;7.53;4.30;;;;;;;10.85;100.00;99766.91;5030709;28;20190;-71
2023/03/24 03:50:42;;;;;;;5.67;4.00;;;;;;;10.87;100.00;99759.22;5025473;28;20189;-71
2023/03/24 03:53:09;;;;;;;7.60;4.13;;;;;;;10.86;100.00;99762.63;5030830;28;20206;-71
2023/03/24 03:55:35;;;;;;;7.37;5.00;;;;;;;10.87;100.00;99757.50;5027188;28;20189;-70
2023/03/24 03:58:03;;;;;;;5.23;4.00;;;;;;;10.87;100.00;99743.84;5026586;28;20193;-72
2023/03/24 04:00:40;;;;;;;8.00;4.60;;;;;;;10.89;100.00;99744.69;5025428;28;20190;-70
2023/03/24 04:03:39;;;;;;;9.57;4.27;;;;;;;10.91;100.00;99743.84;5029057;28;20232;-71
2023/03/24 04:06:25;;;;;;;6.23;4.30;;;;;;;10.91;100.00;99741.28;5018717;28;20208;-70
2023/03/24 04:09:06;;;;;;;6.60;4.00;;;;;;;10.93;100.00;99736.16;5026405;28;20190;-72
2023/03/24 04:12:11;;;;;;;6.03;4.23;;;;;;;10.97;100.00;99730.19;5027590;28;20860;-71
2023/03/24 04:15:04;;;;;;;7.77;4.50;;;;;;;10.99;100.00;99729.34;5040814;28;20216;-70
2023/03/24 04:18:19;;;;;;;6.57;4.07;;;;;;;11.02;100.00;99725.91;5044082;28;20205;-71
2023/03/24 04:21:27;;;;;;;8.80;4.87;;;;;;;11.05;100.00;99721.63;5028540;28;20543;-72
2023/03/24 04:24:06;;;;;;;8.07;3.97;;;;;;;11.09;100.00;99719.91;5023891;28;20683;-69
2023/03/24 04:26:47;;;;;;;4.30;3.90;;;;;;;11.09;100.00;99731.03;5023259;28;20189;-70
2023/03/24 04:29:51;;;;;;;8.57;4.43;;;;;;;11.13;100.00;99714.81;5040713;28;20258;-70
2023/03/24 04:32:45;;;;;;;5.17;3.53;;;;;;;11.16;100.00;99703.69;5017879;28;20228;-73
2023/03/24 04:35:25;;;;;;;5.63;3.80;;;;;;;11.17;100.00;99706.28;5038966;28;20274;-71
2023/03/24 04:38:22;;;;;;;5.17;3.87;;;;;;;11.21;100.00;99710.53;5026439;28;20211;-70
2023/03/24 04:40:55;;;;;;;4.10;3.10;;;;;;;11.22;100.00;99704.56;5026040;28;20190;-70
2023/03/24 04:43:25;;;;;;;6.20;3.80;;;;;;;11.24;100.00;99705.38;5027208;28;20263;-73
2023/03/24 04:45:56;;;;;;;5.17;3.37;;;;;;;11.25;100.00;99701.97;5027503;28;20204;-71
2023/03/24 04:48:31;;;;;;;5.40;3.47;;;;;;;11.25;100.00;99693.44;5027034;28;20197;-70
2023/03/24 04:51:12;;;;;;;5.90;3.87;;;;;;;11.27;100.00;99689.16;5026226;28;20190;-70
2023/03/24 04:53:53;;;;;;;4.27;3.40;;;;;;;11.25;100.00;99689.16;5029863;28;20589;-70
2023/03/24 04:56:32;;;;;;;4.43;3.70;;;;;;;11.25;100.00;99676.34;5025241;28;20686;-71
2023/03/24 04:59:08;;;;;;;4.57;4.07;;;;;;;11.25;100.00;99684.03;5023878;28;20189;-73
2023/03/24 05:01:36;;;;;;;7.17;4.07;;;;;;;11.24;100.00;99677.19;5023912;28;20248;-72
2023/03/24 05:04:36;;;;;;;5.10;3.97;;;;;;;11.25;100.00;99665.25;5011184;28;20197;-72
2023/03/24 05:07:28;;;;;;;4.90;3.93;;;;;;;11.27;100.00;99656.69;5040354;28;20233;-71
2023/03/24 05:09:57;;;;;;;6.50;3.67;;;;;;;11.26;100.00;99657.56;5025700;28;20561;-70
2023/03/24 05:12:23;;;;;;;6.10;4.30;;;;;;;11.27;100.00;99671.22;5047233;28;20204;-71
2023/03/24 05:15:27;;;;;;;6.07;3.73;;;;;;;11.30;100.00;99664.34;5003365;28;20593;-71
2023/03/24 05:18:08;;;;;;;5.93;3.57;;;;;;;11.34;100.00;99645.56;4996362;28;20194;-72
2023/03/24 05:20:34;;;;;;;5.63;4.10;;;;;;;11.38;100.00;99647.25;5021792;28;20202;-69
2023/03/24 05:23:10;;;;;;;5.73;4.13;;;;;;;11.39;100.00;99643.84;5033472;28;20247;-70
2023/03/24 05:25:37;;;;;;;3.80;3.47;;;;;;;11.39;100.00;99633.56;5030854;28;20623;-69
2023/03/24 05:28:02;;;;;;;7.33;4.20;;;;;;;11.39;100.00;99648.97;5027132;28;20178;-70
2023/03/24 05:30:29;;;;;;;6.50;4.20;;;;;;;11.40;100.00;99642.13;5033444;28;20539;-72
2023/03/24 05:33:04;;;;;;;6.03;4.20;;;;;;;11.42;100.00;99645.53;5030143;28;20220;-70
2023/03/24 05:35:29;;;;;;;4.73;3.57;;;;;;;11.42;100.00;99651.53;5027272;28;20183;-71
2023/03/24 05:37:55;;;;;;;6.07;4.07;;;;;;;11.43;100.00;99647.25;5033972;28;20189;-71
2023/03/24 05:40:21;;;;;;;4.73;3.93;;;;;;;11.44;100.00;99649.81;5033415;28;20197;-70
2023/03/24 05:42:50;;;;;;;4.37;3.60;;;;;;;11.45;100.00;99642.97;5028485;28;20206;-70
2023/03/24 05:45:17;;;;;;;4.00;3.50;;;;;;;11.49;100.00;99640.41;5031231;28;20189;-70
2023/03/24 05:47:42;;;;;;;5.77;4.10;;;;;;;11.51;100.00;99646.38;5030821;28;20186;-70
2023/03/24 05:50:08;;;;;;;6.83;3.70;;;;;;;11.52;100.00;99637.81;5032831;28;20323;-70
2023/03/24 05:52:35;;;;;;;5.83;4.00;;;;;;;11.54;100.00;99628.41;5025886;28;20300;-68
2023/03/24 05:55:22;;;;;;;5.03;3.70;;;;;;;11.59;100.00;99629.28;5043033;28;20678;-70
2023/03/24 05:57:54;;;;;;;6.10;4.20;;;;;;;11.62;100.00;99630.97;5030201;28;20181;-71
2023/03/24 06:00:29;;;;;;;3.90;3.57;;;;;;;11.71;100.00;99618.94;5026917;28;20193;-70
2023/03/24 06:03:04;;;;;;;5.53;3.30;;;;;;;11.68;100.00;99628.38;5023790;28;20563;-70
2023/03/24 06:05:46;;;;;;;4.97;3.50;;;;;;;11.73;100.00;99608.69;5025506;28;20195;-73
2023/03/24 06:08:12;;;;;;;4.00;3.10;;;;;;;11.77;100.00;99613.81;5029728;28;20276;-71
2023/03/24 06:10:39;;;;;;;5.80;3.13;;;;;;;11.79;100.00;99613.78;5025289;28;20194;-70
2023/03/24 06:13:07;;;;;;;3.67;3.33;;;;;;;11.76;100.00;99612.06;5027326;28;20217;-70
2023/03/24 06:15:33;;;;;;;4.83;3.30;;;;;;;11.75;100.00;99609.56;5028736;28;20197;-70
2023/03/24 06:18:20;;;;;;;3.63;3.20;;;;;;;11.75;100.00;99602.69;5024457;28;20186;-73
2023/03/24 06:20:49;;;;;;;4.00;3.20;;;;;;;11.77;100.00;99600.13;5032286;28;20193;-72
2023/03/24 06:23:24;;;;;;;4.37;3.43;;;;;;;11.75;100.00;99595.00;5025616;28;20217;-69
2023/03/24 06:26:08;;;;;;;4.53;3.17;;;;;;;11.75;100.00;99604.41;5026782;28;20181;-70
2023/03/24 06:28:35;;;;;;;6.13;3.63;;;;;;;11.72;100.00;99597.59;5029096;28;20228;-70
2023/03/24 06:31:13;;;;;;;4.17;3.17;;;;;;;11.74;100.00;99588.16;5027961;28;20210;-70
2023/03/24 06:33:42;;;;;;;4.83;3.70;;;;;;;11.74;100.00;99600.13;5025478;28;20214;-71
2023/03/24 06:36:09;;;;;;;4.87;3.37;;;;;;;11.74;100.00;99603.56;5027875;28;20233;-70
2023/03/24 06:38:35;;;;;;;4.33;3.60;;;;;;;11.76;100.00;99595.84;5030473;28;20251;-70
2023/03/24 06:41:03;;;;;;;4.83;3.73;;;;;;;11.77;100.00;99600.13;5027488;28;20633;-69
2023/03/24 06:43:31;;;;;;;3.60;3.20;;;;;;;11.77;100.00;99602.69;5045846;28;20240;-70
2023/03/24 06:45:56;;;;;;;3.70;3.30;;;;;;;11.79;100.00;99614.63;5025620;28;20174;-70
2023/03/24 06:48:23;;;;;;;4.33;3.63;;;;;;;11.80;100.00;99618.06;5027603;28;20289;-70
2023/03/24 06:50:52;;;;;;;6.00;3.60;;;;;;;11.78;100.00;99607.81;5034345;28;20197;-72
2023/03/24 06:53:20;;;;;;;4.40;3.93;;;;;;;11.78;100.00;99618.06;5023333;28;20247;-72
2023/03/24 06:55:47;;;;;;;5.80;3.73;;;;;;;11.81;100.00;99623.19;5028648;28;20545;-71
2023/03/24 06:58:14;;;;;;;4.53;3.67;;;;;;;11.82;100.00;99630.03;5026614;28;20272;-70
2023/03/24 07:00:50;;;;;;;5.83;4.17;;;;;;;11.86;100.00;99626.59;5025197;28;20186;-72
2023/03/24 07:03:30;;;;;;;4.37;3.90;;;;;;;11.91;100.00;99627.41;5026086;28;20213;-70
2023/03/24 07:06:23;;;;;;;4.73;3.67;;;;;;;11.95;100.00;99630.81;5042161;28;20190;-69
2023/03/24 07:08:52;;;;;;;4.50;4.00;;;;;;;11.99;100.00;99622.22;5040019;28;20190;-70
2023/03/24 07:11:20;;;;;;;4.27;3.70;;;;;;;12.03;100.00;99632.44;5022951;28;20190;-72
2023/03/24 07:13:52;;;;;;;4.03;3.73;;;;;;;12.08;100.00;99635.00;5027619;28;20638;-70
2023/03/24 07:16:17;;;;;;;4.07;3.40;;;;;;;12.12;100.00;99642.66;5023324;28;20316;-73
2023/03/24 07:18:44;;;;;;;4.00;3.47;;;;;;;12.13;100.00;99631.53;5030702;28;20186;-71
2023/03/24 07:21:10;;;;;;;4.03;3.33;;;;;;;12.13;100.00;99639.22;5029555;28;20194;-70
2023/03/24 07:23:36;;;;;;;4.27;3.40;;;;;;;12.13;100.00;99644.34;5027075;28;20322;-72
2023/03/24 07:26:01;;;;;;;3.93;3.63;;;;;;;12.14;100.00;99643.50;5046052;28;20694;-70
2023/03/24 07:28:53;;;;;;;3.67;3.30;;;;;;;12.16;100.00;99641.78;5044373;28;20721;-72
2023/03/24 07:31:39;;;;;;;3.57;3.27;;;;;;;12.18;100.00;99646.91;5005632;28;20199;-69
2023/03/24 07:34:08;;;;;;;3.20;2.90;;;;;;;12.22;100.00;99666.56;5026225;28;20213;-69
2023/03/24 07:36:35;;;;;;;3.47;2.57;;;;;;;12.30;100.00;99673.34;5026090;28;20190;-71
2023/03/24 07:39:03;;;;;;;3.27;2.53;;;;;;;12.42;100.00;99690.38;5026138;28;20292;-70
2023/03/24 07:41:32;;;;;;;2.57;2.10;;;;;;;12.48;100.00;99686.06;5026626;28;20657;-70
2023/03/24 07:44:02;;;;;;;2.40;1.83;;;;;;;12.47;100.00;99699.75;5031267;28;20239;-71
2023/03/24 07:46:38;;;;;;;2.17;1.63;;;;;;;12.52;100.00;99704.84;5023212;28;20196;-71
2023/03/24 07:49:04;;;;;;;2.80;1.80;;;;;;;12.58;100.00;99717.66;5028669;28;20181;-72
2023/03/24 07:51:29;;;;;;;4.93;1.63;;;;;;;12.71;100.00;99725.25;5022943;28;20185;-69
2023/03/24 07:53:58;;;;;;;2.07;1.47;;;;;;;12.84;100.00;99721.75;5026250;28;20234;-72
2023/03/24 07:56:29;;;;;;;3.90;1.60;;;;;;;12.84;100.00;99729.44;5025162;28;20194;-70
2023/03/24 07:58:57;;;;;;;3.13;1.80;;;;;;;12.86;100.00;99742.28;5028334;28;20257;-70
2023/03/24 08:01:30;;;;;;;2.80;1.50;;;;;;;12.84;100.00;99755.16;5029119;28;20209;-71
2023/03/24 08:04:00;;;;;;;3.23;1.20;;;;;;;12.91;100.00;99756.78;5023866;28;20799;-70
2023/03/24 08:06:44;;;;;;;5.53;1.70;;;;;;;12.99;100.00;99763.63;5042499;28;20204;-70
2023/03/24 08:09:10;;;;;;;5.47;1.30;;;;;;;13.07;100.00;99774.72;5047987;28;20202;-70
2023/03/24 08:11:36;;;;;;;4.90;1.47;;;;;;;13.23;100.00;99779.72;5048488;28;20189;-71
2023/03/24 08:14:02;;;;;;;4.37;1.73;;;;;;;13.32;100.00;99791.63;5046596;28;20201;-71
2023/03/24 08:16:28;;;;;;;5.70;1.40;;;;;;;13.42;100.00;99798.38;5041817;28;20192;-70
2023/03/24 08:18:56;;;;;;;3.97;1.50;;;;;;;13.23;100.00;99792.56;5020519;28;20194;-75
2023/03/24 08:21:23;;;;;;;6.03;1.97;;;;;;;13.01;100.00;99800.44;5039199;28;20570;-70
2023/03/24 08:23:48;;;;;;;2.63;1.47;;;;;;;12.94;100.00;99810.75;5047550;28;20625;-69
2023/03/24 08:26:14;;;;;;;3.17;1.33;;;;;;;13.54;100.00;99819.69;5046857;28;20193;-70
2023/03/24 08:28:40;;;;;;;4.27;1.50;;;;;;;14.38;100.00;99808.53;5030038;28;20539;-70
2023/03/24 08:31:06;;;;;;;2.13;1.20;;;;;;;14.34;100.00;99812.00;5044169;28;20213;-70
2023/03/24 08:33:32;;;;;;;3.43;1.33;;;;;;;14.25;100.00;99809.53;5011732;28;20213;-70
2023/03/24 08:35:59;;;;;;;3.93;1.33;;;;;;;14.10;100.00;99826.84;5024901;28;20552;-71
2023/03/24 08:38:29;;;;;;;5.40;1.23;;;;;;;14.33;100.00;99825.75;5046688;28;20243;-70
2023/03/24 08:40:57;;;;;;;4.37;1.27;;;;;;;14.53;100.00;99812.59;5040399;28;20660;-74
2023/03/24 08:43:24;;;;;;;3.63;1.30;;;;;;;14.40;100.00;99805.91;5035221;28;20556;-70
2023/03/24 08:45:50;;;;;;;4.83;1.30;;;;;;;14.29;100.00;99785.47;5044706;28;20182;-71
2023/03/24 08:48:16;;;;;;;6.50;1.37;;;;;;;13.98;100.00;99811.53;5041340;28;20626;-71
2023/03/24 08:50:42;;;;;;;3.27;1.27;;;;;;;13.88;100.00;99851.97;5040336;28;20288;-69
2023/03/24 08:53:10;;;;;;;3.43;1.57;;;;;;;13.88;100.00;99841.69;5026876;28;20209;-73
2023/03/24 08:55:40;;;;;;;3.30;1.17;;;;;;;13.90;100.00;99836.53;5027931;28;20198;-70
2023/03/24 08:58:07;;;;;;;4.43;1.50;;;;;;;14.02;100.00;99846.69;5041559;28;20189;-72
2023/03/24 09:00:32;;;;;;;2.40;1.37;;;;;;;14.18;100.00;99817.34;5031344;28;20255;-72
2023/03/24 09:02:59;;;;;;;3.97;1.50;;;;;;;14.38;100.00;99817.97;5041628;28;20618;-71
2023/03/24 09:05:26;;;;;;;5.10;1.60;;;;;;;14.82;100.00;99803.59;5029888;28;20272;-71
2023/03/24 09:07:52;;;;;;;2.30;1.17;;;;;;;15.64;100.00;99734.31;5046468;28;20331;-70
2023/03/24 09:10:18;;;;;;;5.83;1.60;;;;;;;15.86;100.00;99706.34;5012994;28;20224;-72
2023/03/24 09:12:45;;;;;;;3.43;1.20;;;;;;;15.17;100.00;99748.91;5017108;28;20206;-71
2023/03/24 09:15:12;;;;;;;4.13;1.60;;;;;;;14.52;100.00;99823.78;5046732;28;20276;-71
2023/03/24 09:17:38;;;;;;;4.50;1.43;;;;;;;14.09;100.00;99846.59;5025147;28;20186;-70
2023/03/24 09:20:10;;;;;;;4.73;1.70;;;;;;;13.94;100.00;99851.03;5025863;28;20275;-71
2023/03/24 09:22:44;;;;;;;5.23;1.70;;;;;;;14.71;100.00;99827.81;5024744;28;20708;-72
2023/03/24 09:25:12;;;;;;;6.73;1.97;;;;;;;15.52;100.00;99592.63;5047611;28;20188;-72
2023/03/24 09:27:38;;;;;;;6.80;1.60;;;;;;;14.86;100.00;99616.25;5043032;28;20194;-71
2023/03/24 09:30:05;;;;;;;6.87;2.20;;;;;;;16.32;100.00;99526.22;5047055;28;20186;-71
2023/03/24 09:32:32;;;;;;;5.63;2.00;;;;;;;15.24;100.00;99567.41;5046156;28;20283;-71
2023/03/24 09:34:58;;;;;;;4.60;1.47;;;;;;;14.68;100.00;99634.63;5042230;28;20190;-73
2023/03/24 09:37:24;;;;;;;10.20;2.20;;;;;;;14.49;100.00;99669.25;5045603;28;20200;-70
2023/03/24 09:39:50;;;;;;;7.30;2.00;;;;;;;16.49;100.00;99671.41;5040366;28;20319;-71
2023/03/24 09:42:22;;;;;;;6.63;2.03;;;;;;;14.56;100.00;99679.47;5035501;28;20214;-73
2023/03/24 09:44:53;;;;;;;6.67;1.73;;;;;;;14.42;100.00;99737.22;5040525;28;20178;-71
2023/03/24 09:47:38;;;;;;;5.07;2.00;;;;;;;14.21;100.00;99776.09;5030078;28;20201;-71
2023/03/24 09:50:48;;;;;;;5.53;1.80;;;;;;;14.62;100.00;99810.78;5037317;28;20186;-71
2023/03/24 09:53:53;;;;;;;5.57;2.10;;;;;;;15.70;100.00;99672.25;5041523;28;20589;-73
2023/03/24 09:56:21;;;;;;;6.67;1.90;;;;;;;16.39;100.00;99584.63;5013878;28;20195;-71
2023/03/24 09:59:25;;;;;;;6.23;2.20;;;;;;;18.69;100.00;99534.66;5022436;28;20190;-73
2023/03/24 10:01:51;;;;;;;8.33;2.00;;;;;;;18.35;92.82;99189.38;5043229;28;20206;-73
2023/03/24 10:04:20;;;;;;;6.87;1.80;;;;;;;17.55;100.00;99349.41;5028094;28;20667;-71
2023/03/24 10:06:51;;;;;;;5.53;1.92;;;;;;;23.84;55.36;98867.88;5038510;28;20189;-71
2023/03/24 10:09:27;;;;;;;5.30;1.85;;;;;;;21.47;54.14;98721.88;5037249;28;20207;-71
2023/03/24 10:12:12;;;;;;;7.90;1.80;;;;;;;17.42;92.36;99144.50;5032210;28;20558;-72
2023/03/24 10:14:37;;;;;;;6.43;1.73;;;;;;;16.46;100.00;99314.84;5048967;28;20561;-70
2023/03/24 10:17:18;;;;;;;7.00;2.10;;;;;;;15.86;100.00;99425.81;5031462;28;20185;-71
2023/03/24 10:19:59;;;;;;;4.30;1.63;;;;;;;15.24;100.00;99515.81;5048082;28;20219;-72
2023/03/24 10:22:52;;;;;;;6.47;2.10;;;;;;;14.78;100.00;99602.66;5022579;28;20236;-71
2023/03/24 10:25:31;;;;;;;6.17;2.00;;;;;;;14.43;100.00;99665.06;5049892;28;20216;-72
2023/03/24 10:28:01;;;;;;;9.57;2.27;;;;;;;14.36;100.00;99717.53;5048223;28;20189;-73
2023/03/24 10:30:33;;;;;;;7.67;2.03;;;;;;;14.31;100.00;99762.28;5047673;28;20311;-71
2023/03/24 10:32:59;;;;;;;8.67;2.50;;;;;;;14.16;100.00;99783.00;5047775;28;20209;-73
2023/03/24 10:35:34;;;;;;;8.20;2.20;;;;;;;14.14;100.00;99819.06;5048406;28;20178;-70
2023/03/24 10:38:04;;;;;;;10.07;1.93;;;;;;;14.28;100.00;99834.41;5039181;28;20647;-72
2023/03/24 10:40:31;;;;;;;6.13;1.90;;;;;;;14.56;100.00;99825.47;5052247;28;20674;-71
2023/03/24 10:42:58;;;;;;;6.20;2.00;;;;;;;15.20;100.00;99780.66;5046025;28;20214;-71
2023/03/24 10:45:35;;;;;;;6.13;1.70;;;;;;;16.62;100.00;99549.59;5050089;28;20192;-71
2023/03/24 10:48:03;;;;;;;8.60;2.00;;;;;;;18.57;95.11;99405.44;5045447;28;20243;-71
2023/03/24 10:50:34;;;;;;;5.50;2.10;;;;;;;25.49;46.88;98722.53;5049694;28;20268;-71
2023/03/24 10:53:08;;;;;;;6.50;1.92;;;;;;;28.54;38.03;99132.91;5013880;28;20201;-74
2023/03/24 10:55:38;;;;;;;7.43;1.92;;;;;;;21.97;47.12;99509.75;5043964;28;20197;-72
2023/03/24 10:58:14;;;;;;;8.88;2.13;;;;;;;21.98;50.33;99550.53;5049472;28;20202;-72
2023/03/24 11:00:44;;;;;;;5.60;2.00;;;;;;;20.17;67.14;99708.47;5050235;28;20731;-72
2023/03/24 11:03:25;;;;;;;5.32;1.50;;;;;;;20.62;62.63;99669.41;5043746;28;20217;-71
2023/03/24 11:05:57;;;;;;;7.93;2.30;;;;;;;26.99;39.55;99417.69;5050761;28;20244;-72
2023/03/24 11:08:37;;;;;;;5.22;1.90;;;;;;;29.62;34.57;99466.94;5046846;28;20185;-72
2023/03/24 11:11:32;;;;;;;3.78;1.63;;;;;;;26.51;38.72;99612.78;5042056;28;20244;-71
2023/03/24 11:14:00;;;;;;;4.82;1.55;;;;;;;25.01;38.23;99590.78;5040146;28;20573;-71
2023/03/24 11:16:44;;;;;;;5.78;1.67;;;;;;;22.30;45.10;99729.84;5026014;28;20647;-71
2023/03/24 11:19:17;;;;;;;5.63;1.85;;;;;;;19.74;56.62;99846.03;5041262;28;20190;-71
2023/03/24 11:21:42;;;;;;;5.77;2.10;;;;;;;17.71;82.73;99957.41;5046827;28;20197;-70
2023/03/24 11:24:15;;;;;;;6.03;1.80;;;;;;;17.07;93.88;100003.69;5045673;28;20202;-72
2023/03/24 11:26:48;;;;;;;6.70;1.87;;;;;;;16.79;100.00;100036.16;5045972;28;20191;-71
2023/03/24 11:29:23;;;;;;;7.10;2.20;;;;;;;16.51;100.00;100054.75;5029918;28;20193;-71
2023/03/24 11:32:04;;;;;;;9.60;2.13;;;;;;;16.15;100.00;100082.03;5040407;28;20657;-69
2023/03/24 11:34:40;;;;;;;9.77;2.40;;;;;;;16.05;100.00;100092.50;5024833;28;20690;-70
2023/03/24 11:37:18;;;;;;;5.17;1.97;;;;;;;15.44;100.00;100107.13;5044060;28;20188;-69
2023/03/24 11:40:14;;;;;;;7.30;2.20;;;;;;;15.05;100.00;100141.91;5046568;28;20320;-70
2023/03/24 11:42:45;;;;;;;6.43;2.27;;;;;;;14.78;100.00;100134.44;5042852;28;20237;-73
2023/03/24 11:45:29;;;;;;;5.70;2.33;;;;;;;14.49;100.00;100136.41;5042092;28;20221;-69
2023/03/24 11:47:57;;;;;;;9.30;2.30;;;;;;;14.38;100.00;100145.09;5046750;28;20178;-71
2023/03/24 11:50:27;;;;;;;9.20;2.50;;;;;;;14.38;100.00;100148.53;5024920;28;20194;-71
2023/03/24 11:53:13;;;;;;;7.53;1.90;;;;;;;14.32;100.00;100143.41;5023017;28;20777;-71